createdAt,value
2019-05-18T00:00:09.857Z,79.61
2019-05-18T00:02:56.610Z,79.80
2019-05-18T00:05:44.468Z,79.94
2019-05-18T00:08:31.201Z,78.95
2019-05-18T00:11:18.214Z,80.01
2019-05-18T00:14:20.440Z,80.54
2019-05-18T00:17:23.200Z,81.04
2019-05-18T00:19:54.782Z,81.62
2019-05-18T00:22:42.047Z,80.24
2019-05-18T00:25:30.030Z,80.96
2019-05-18T00:28:16.980Z,81.22
2019-05-18T00:31:05.216Z,81.38
2019-05-18T00:33:52.633Z,81.60
2019-05-18T00:36:39.504Z,81.57
2019-05-18T00:39:26.519Z,81.84
2019-05-18T00:42:13.634Z,82.49
2019-05-18T00:45:01.930Z,82.82
2019-05-18T00:47:49.735Z,82.41
2019-05-18T00:50:36.455Z,81.02
2019-05-18T00:53:24.507Z,81.79
2019-05-18T00:56:12.513Z,82.29
2019-05-18T01:02:05.579Z,81.82
2019-05-18T01:04:52.813Z,82.34
2019-05-18T01:07:40.938Z,82.84
2019-05-18T01:10:27.871Z,82.99
2019-05-18T01:13:15.801Z,81.27
2019-05-18T01:16:03.632Z,82.25
2019-05-18T01:18:51.346Z,82.53
2019-05-18T01:21:38.295Z,82.75
2019-05-18T01:24:25.805Z,82.72
2019-05-18T01:27:13.723Z,81.34
2019-05-18T01:33:06.578Z,82.06
2019-05-18T01:35:53.916Z,81.71
2019-05-18T01:38:41.239Z,81.71
2019-05-18T01:41:28.858Z,81.98
2019-05-18T01:44:16.923Z,81.99
2019-05-18T01:47:04.005Z,81.98
2019-05-18T01:49:51.278Z,82.51
2019-05-18T01:52:38.954Z,82.52
2019-05-18T01:55:25.663Z,82.85
2019-05-18T01:58:26.885Z,83.27
2019-05-18T02:01:14.055Z,83.38
2019-05-18T02:04:00.850Z,84.00
2019-05-18T02:06:48.179Z,84.49
2019-05-18T02:09:35.408Z,84.45
2019-05-18T02:12:23.204Z,83.59
2019-05-18T02:15:17.747Z,83.11
2019-05-18T02:18:04.436Z,82.43
2019-05-18T02:20:51.363Z,81.93
2019-05-18T02:23:39.556Z,81.35
2019-05-18T02:26:27.126Z,81.28
2019-05-18T02:29:21.751Z,81.02
2019-05-18T02:32:08.826Z,80.30
2019-05-18T02:34:56.151Z,81.25
2019-05-18T02:37:46.398Z,81.43
2019-05-18T02:40:32.293Z,81.36
2019-05-18T02:43:20.329Z,81.29
2019-05-18T02:46:08.262Z,80.84
2019-05-18T02:52:02.041Z,81.21
2019-05-18T02:54:48.888Z,81.15
2019-05-18T02:57:36.374Z,80.10
2019-05-18T03:00:23.696Z,80.27
2019-05-18T03:03:12.452Z,80.15
2019-05-18T03:06:00.105Z,80.58
2019-05-18T03:08:47.273Z,81.33
2019-05-18T03:17:47.019Z,80.75
2019-05-18T03:23:46.232Z,81.37
2019-05-18T03:29:40.219Z,80.52
2019-05-18T03:32:27.373Z,80.77
2019-05-18T03:35:14.486Z,80.98
2019-05-18T03:38:01.510Z,81.20
2019-05-18T03:40:52.108Z,79.87
2019-05-18T03:43:38.805Z,80.15
2019-05-18T03:49:32.341Z,80.45
2019-05-18T03:52:20.084Z,79.70
2019-05-18T03:55:07.746Z,80.06
2019-05-18T03:57:55.732Z,80.33
2019-05-18T04:00:44.698Z,80.82
2019-05-18T04:03:33.263Z,81.36
2019-05-18T04:06:20.897Z,81.69
2019-05-18T04:09:09.009Z,81.05
2019-05-18T04:11:56.949Z,81.03
2019-05-18T04:14:44.164Z,80.53
2019-05-18T04:17:32.308Z,80.96
2019-05-18T04:20:19.548Z,80.90
2019-05-18T04:23:06.572Z,81.37
2019-05-18T04:26:07.779Z,82.10
2019-05-18T04:28:56.139Z,82.47
2019-05-18T04:31:43.789Z,82.48
2019-05-18T04:34:31.290Z,82.80
2019-05-18T04:37:18.818Z,83.08
2019-05-18T04:40:06.342Z,82.48
2019-05-18T04:42:54.130Z,81.53
2019-05-18T04:45:40.950Z,82.41
2019-05-18T04:48:31.282Z,82.87
2019-05-18T04:51:18.014Z,84.22
2019-05-18T04:54:04.851Z,84.16
2019-05-18T04:56:51.823Z,84.09
2019-05-18T04:59:39.237Z,83.71
2019-05-18T05:02:25.840Z,83.63
2019-05-18T05:05:12.636Z,83.33
2019-05-18T05:08:00.770Z,83.19
2019-05-18T05:11:02.030Z,83.19
2019-05-18T05:13:49.040Z,83.54
2019-05-18T05:16:36.360Z,83.82
2019-05-18T05:19:23.585Z,83.90
2019-05-18T05:22:10.799Z,84.27
2019-05-18T05:24:57.879Z,83.89
2019-05-18T05:27:45.224Z,83.24
2019-05-18T05:30:32.034Z,83.62
2019-05-18T05:33:20.177Z,81.88
2019-05-18T05:36:06.930Z,82.70
2019-05-18T05:38:55.025Z,82.24
2019-05-18T05:41:42.323Z,82.53
2019-05-18T05:44:29.171Z,80.19
2019-05-18T05:47:31.209Z,80.74
2019-05-18T05:50:36.246Z,80.51
2019-05-18T05:59:46.686Z,80.90
2019-05-18T06:02:47.999Z,80.32
2019-05-18T06:05:35.604Z,80.70
2019-05-18T06:08:37.235Z,80.35
2019-05-18T06:11:24.430Z,80.72
2019-05-18T06:14:25.903Z,79.68
2019-05-18T06:17:13.461Z,78.48
2019-05-18T06:20:01.743Z,77.69
2019-05-18T06:22:48.361Z,77.84
2019-05-18T06:25:35.616Z,75.49
2019-05-18T06:28:23.265Z,75.28
2019-05-18T06:31:10.764Z,74.85
2019-05-18T06:34:12.402Z,73.98
2019-05-18T06:36:59.489Z,74.71
2019-05-18T06:39:46.351Z,74.03
2019-05-18T06:42:33.823Z,71.10
2019-05-18T06:45:21.313Z,70.95
2019-05-18T06:48:08.208Z,70.99
2019-05-18T06:51:06.807Z,69.97
2019-05-18T06:53:43.770Z,69.45
2019-05-18T06:56:30.510Z,69.22
2019-05-18T06:59:18.159Z,68.73
2019-05-18T07:02:05.328Z,68.42
2019-05-18T07:04:52.603Z,68.05
2019-05-18T07:07:40.237Z,67.82
2019-05-18T07:10:28.196Z,67.48
2019-05-18T07:13:14.941Z,66.87
2019-05-18T07:16:02.839Z,66.72
2019-05-18T07:18:50.278Z,66.40
2019-05-18T07:21:37.250Z,66.33
2019-05-18T07:24:24.723Z,65.13
2019-05-18T07:27:11.863Z,65.00
2019-05-18T07:29:59.363Z,64.58
2019-05-18T07:32:46.273Z,64.64
2019-05-18T07:35:36.670Z,64.40
2019-05-18T07:41:46.189Z,63.78
2019-05-18T07:44:23.075Z,63.72
2019-05-18T07:47:28.153Z,63.18
2019-05-18T07:50:15.301Z,62.89
2019-05-18T07:53:02.543Z,62.33
2019-05-18T07:55:49.378Z,61.90
2019-05-18T07:58:43.912Z,61.70
2019-05-18T08:07:43.174Z,61.56
2019-05-18T08:10:36.741Z,61.21
2019-05-18T08:13:23.739Z,61.55
2019-05-18T08:16:13.757Z,55.62
2019-05-18T08:19:01.288Z,58.62
2019-05-18T08:25:04.565Z,51.61
2019-05-18T08:27:54.652Z,55.64
2019-05-18T08:30:42.465Z,51.13
2019-05-18T08:33:30.218Z,54.92
2019-05-18T08:36:17.824Z,55.31
2019-05-18T08:39:04.739Z,55.78
2019-05-18T08:41:51.647Z,57.13
2019-05-18T08:44:38.681Z,56.63
2019-05-18T08:50:32.141Z,57.20
2019-05-18T08:53:20.073Z,57.38
2019-05-18T08:56:21.624Z,56.80
2019-05-18T08:59:10.731Z,57.94
2019-05-18T09:01:58.617Z,58.02
2019-05-18T09:04:46.266Z,58.01
2019-05-18T09:07:33.502Z,58.32
2019-05-18T09:10:20.193Z,56.69
2019-05-18T09:13:07.133Z,56.38
2019-05-18T09:15:55.431Z,49.69
2019-05-18T09:18:43.267Z,53.46
2019-05-18T09:21:30.635Z,54.09
2019-05-18T09:27:23.690Z,54.33
2019-05-18T09:30:11.063Z,55.41
2019-05-18T09:32:57.889Z,55.88
2019-05-18T09:35:44.492Z,54.64
2019-05-18T09:38:33.589Z,54.09
2019-05-18T09:41:19.756Z,54.63
2019-05-18T09:44:06.504Z,54.17
2019-05-18T09:46:54.010Z,53.70
2019-05-18T09:49:41.594Z,52.06
2019-05-18T09:52:45.277Z,43.89
2019-05-18T09:55:30.501Z,49.24
2019-05-18T09:58:17.840Z,50.38
2019-05-18T10:01:04.873Z,50.24
2019-05-18T10:03:51.965Z,50.31
2019-05-18T10:06:39.183Z,49.53
2019-05-18T10:09:26.604Z,49.31
2019-05-18T10:12:13.421Z,48.19
2019-05-18T10:15:14.955Z,41.36
2019-05-18T10:18:03.215Z,45.84
2019-05-18T10:20:50.506Z,47.33
2019-05-18T10:23:40.068Z,48.29
2019-05-18T10:26:24.222Z,48.83
2019-05-18T10:29:25.932Z,49.07
2019-05-18T10:32:13.131Z,48.77
2019-05-18T10:35:00.188Z,49.60
2019-05-18T10:37:47.356Z,49.58
2019-05-18T10:40:34.396Z,48.03
2019-05-18T10:46:36.247Z,49.50
2019-05-18T10:49:24.144Z,50.27
2019-05-18T10:52:10.802Z,49.52
2019-05-18T10:54:58.315Z,48.74
2019-05-18T10:57:45.687Z,42.98
2019-05-18T11:00:32.463Z,47.59
2019-05-18T11:03:19.855Z,48.15
2019-05-18T11:06:07.445Z,48.42
2019-05-18T11:08:54.600Z,49.09
2019-05-18T11:11:41.739Z,43.23
2019-05-18T11:14:28.631Z,46.35
2019-05-18T11:20:22.321Z,46.92
2019-05-18T11:23:09.115Z,46.14
2019-05-18T11:26:03.540Z,41.04
2019-05-18T11:28:50.305Z,44.42
2019-05-18T11:31:37.625Z,46.22
2019-05-18T11:34:25.104Z,47.15
2019-05-18T11:37:19.071Z,46.59
2019-05-18T11:40:06.222Z,46.11
2019-05-18T11:42:53.302Z,46.92
2019-05-18T11:45:39.967Z,47.15
2019-05-18T11:48:27.698Z,46.50
2019-05-18T11:51:14.726Z,47.55
2019-05-18T11:54:01.631Z,41.18
2019-05-18T11:56:48.664Z,40.50
2019-05-18T12:02:42.095Z,43.19
2019-05-18T12:05:29.413Z,40.88
2019-05-18T12:08:16.572Z,43.12
2019-05-18T12:11:03.815Z,44.62
2019-05-18T12:13:51.216Z,43.72
2019-05-18T12:16:38.115Z,44.68
2019-05-18T12:22:34.449Z,44.93
2019-05-18T12:25:21.587Z,44.66
2019-05-18T12:28:08.730Z,44.55
2019-05-18T12:30:55.644Z,44.36
2019-05-18T12:33:43.321Z,45.52
2019-05-18T12:36:33.409Z,45.40
2019-05-18T12:39:18.517Z,44.53
2019-05-18T12:42:07.638Z,45.29
2019-05-18T12:44:53.036Z,45.20
2019-05-18T12:53:52.867Z,42.35
2019-05-18T13:02:51.981Z,45.68
2019-05-18T13:05:38.775Z,44.94
2019-05-18T13:08:25.677Z,43.15
2019-05-18T13:11:12.716Z,42.58
2019-05-18T13:13:59.933Z,40.84
2019-05-18T13:16:47.182Z,42.37
2019-05-18T13:19:34.484Z,43.20
2019-05-18T13:25:27.880Z,42.43
2019-05-18T13:28:15.665Z,38.72
2019-05-18T13:31:02.526Z,41.13
2019-05-18T13:33:49.613Z,41.26
2019-05-18T13:36:37.056Z,40.91
2019-05-18T13:39:24.026Z,40.81
2019-05-18T13:42:14.237Z,41.04
2019-05-18T13:45:01.549Z,41.15
2019-05-18T13:47:48.695Z,38.85
2019-05-18T13:50:36.503Z,42.79
2019-05-18T13:53:23.387Z,42.76
2019-05-18T13:56:10.440Z,43.33
2019-05-18T13:58:57.430Z,41.82
2019-05-18T14:01:44.687Z,36.30
2019-05-18T14:04:31.885Z,36.47
2019-05-18T14:07:19.908Z,37.41
2019-05-18T14:10:06.999Z,37.59
2019-05-18T14:12:53.782Z,40.54
2019-05-18T14:15:40.620Z,37.93
2019-05-18T14:18:27.797Z,40.24
2019-05-18T14:21:15.711Z,39.90
2019-05-18T14:24:02.844Z,40.04
2019-05-18T14:26:49.647Z,39.62
2019-05-18T14:29:37.068Z,39.34
2019-05-18T14:32:23.781Z,35.84
2019-05-18T14:35:10.900Z,39.53
2019-05-18T14:37:57.733Z,39.60
2019-05-18T14:40:44.720Z,41.14
2019-05-18T14:43:32.741Z,40.43
2019-05-18T14:46:20.590Z,38.11
2019-05-18T14:49:08.431Z,39.02
2019-05-18T14:51:56.553Z,39.52
2019-05-18T14:54:43.373Z,34.65
2019-05-18T15:00:37.015Z,35.75
2019-05-18T15:03:25.180Z,36.52
2019-05-18T15:06:12.597Z,38.76
2019-05-18T15:08:59.822Z,39.81
2019-05-18T15:11:46.605Z,40.32
2019-05-18T15:14:33.906Z,41.29
2019-05-18T15:17:20.765Z,42.20
2019-05-18T15:20:08.086Z,43.01
2019-05-18T15:22:55.531Z,42.97
2019-05-18T15:25:50.600Z,42.39
2019-05-18T15:28:28.943Z,38.74
2019-05-18T15:31:16.191Z,39.95
2019-05-18T15:34:03.201Z,38.52
2019-05-18T15:39:56.732Z,35.65
2019-05-18T15:42:43.953Z,34.17
2019-05-18T15:45:31.917Z,33.64
2019-05-18T15:48:18.620Z,34.59
2019-05-18T15:51:05.644Z,34.02
2019-05-18T15:53:52.424Z,33.61
2019-05-18T15:59:46.433Z,37.40
2019-05-18T16:02:33.222Z,38.83
2019-05-18T16:05:21.392Z,40.66
2019-05-18T16:08:08.297Z,41.71
2019-05-18T16:10:57.211Z,42.16
2019-05-18T16:13:42.858Z,43.92
2019-05-18T16:16:29.826Z,44.61
2019-05-18T16:19:17.764Z,41.35
2019-05-18T16:22:05.814Z,39.27
2019-05-18T16:24:52.627Z,38.81
2019-05-18T16:27:39.457Z,38.06
2019-05-18T16:30:26.152Z,36.59
2019-05-18T16:33:13.064Z,35.71
2019-05-18T16:36:00.136Z,35.85
2019-05-18T16:41:53.719Z,36.05
2019-05-18T16:44:40.801Z,36.63
2019-05-18T16:50:34.312Z,36.84
2019-05-18T16:53:20.943Z,36.02
2019-05-18T16:56:34.594Z,35.99
2019-05-18T16:59:09.824Z,35.60
2019-05-18T17:01:56.384Z,35.12
2019-05-18T17:04:43.198Z,29.55
2019-05-18T17:07:30.032Z,27.92
2019-05-18T17:10:16.842Z,31.38
2019-05-18T17:13:03.958Z,31.73
2019-05-18T17:15:52.121Z,31.95
2019-05-18T17:18:39.011Z,32.54
2019-05-18T17:21:25.719Z,32.85
2019-05-18T17:27:18.676Z,31.81
2019-05-18T17:30:06.049Z,32.68
2019-05-18T17:32:52.826Z,33.19
2019-05-18T17:35:39.729Z,28.47
2019-05-18T17:38:26.864Z,32.19
2019-05-18T17:44:20.306Z,33.77
2019-05-18T17:47:08.277Z,34.12
2019-05-18T17:49:55.577Z,34.46
2019-05-18T17:52:42.322Z,34.46
2019-05-18T17:55:29.223Z,34.60
2019-05-18T18:01:26.072Z,35.63
2019-05-18T18:04:12.981Z,36.27
2019-05-18T18:07:00.906Z,36.83
2019-05-18T18:12:54.140Z,36.91
2019-05-18T18:15:41.082Z,37.60
2019-05-18T18:18:28.431Z,39.00
2019-05-18T18:21:16.542Z,40.59
2019-05-18T18:24:04.479Z,41.80
2019-05-18T18:26:52.327Z,42.69
2019-05-18T18:29:39.375Z,43.65
2019-05-18T18:32:26.671Z,41.33
2019-05-18T18:35:13.714Z,44.52
2019-05-18T18:38:01.608Z,45.73
2019-05-18T18:40:48.496Z,46.80
2019-05-18T18:43:35.517Z,47.86
2019-05-18T18:46:22.674Z,48.75
2019-05-18T18:49:10.130Z,49.41
2019-05-18T18:51:57.027Z,50.18
2019-05-18T18:54:43.963Z,50.60
2019-05-18T19:00:37.790Z,51.68
2019-05-18T19:03:25.137Z,52.33
2019-05-18T19:06:12.296Z,52.55
2019-05-18T19:09:00.682Z,52.46
2019-05-18T19:11:47.833Z,54.20
2019-05-18T19:14:36.446Z,54.77
2019-05-18T19:17:24.286Z,55.13
2019-05-18T19:20:11.738Z,55.35
2019-05-18T19:22:58.416Z,55.50
2019-05-18T19:25:45.538Z,55.97
2019-05-18T19:28:32.321Z,56.09
2019-05-18T19:31:19.136Z,56.02
2019-05-18T19:34:06.146Z,57.54
2019-05-18T19:36:52.897Z,56.09
2019-05-18T19:39:40.128Z,58.11
2019-05-18T19:42:27.644Z,58.36
2019-05-18T19:45:14.337Z,58.75
2019-05-18T19:48:02.344Z,59.12
2019-05-18T19:50:50.420Z,59.21
2019-05-18T19:53:37.198Z,59.51
2019-05-18T19:56:24.111Z,59.12
2019-05-18T19:59:11.290Z,59.20
2019-05-18T20:01:59.494Z,58.96
2019-05-18T20:07:52.585Z,59.25
2019-05-18T20:10:39.354Z,59.63
2019-05-18T20:13:26.199Z,59.59
2019-05-18T20:16:13.587Z,60.63
2019-05-18T20:19:00.676Z,61.16
2019-05-18T20:21:47.964Z,61.50
2019-05-18T20:24:34.729Z,61.78
2019-05-18T20:27:22.479Z,61.77
2019-05-18T20:30:09.519Z,61.77
2019-05-18T20:32:56.250Z,61.17
2019-05-18T20:35:42.958Z,61.10
2019-05-18T20:38:30.647Z,61.96
2019-05-18T20:47:31.709Z,62.46
2019-05-18T20:50:18.501Z,62.42
2019-05-18T20:53:05.636Z,63.01
2019-05-18T20:55:52.294Z,63.23
2019-05-18T20:58:40.896Z,63.47
2019-05-18T21:01:26.966Z,63.76
2019-05-18T21:04:14.616Z,63.93
2019-05-18T21:07:02.555Z,63.93
2019-05-18T21:09:49.198Z,64.23
2019-05-18T21:12:36.406Z,63.78
2019-05-18T21:15:24.108Z,63.25
2019-05-18T21:18:11.142Z,63.39
2019-05-18T21:20:58.754Z,63.45
2019-05-18T21:23:46.199Z,63.55
2019-05-18T21:29:39.604Z,62.84
2019-05-18T21:32:26.549Z,63.74
2019-05-18T21:35:13.393Z,63.80
2019-05-18T21:38:00.832Z,64.55
2019-05-18T21:40:48.048Z,64.65
2019-05-18T21:43:35.322Z,64.90
2019-05-18T21:49:28.758Z,64.93
2019-05-18T21:52:16.367Z,66.33
2019-05-18T21:55:03.513Z,67.09
2019-05-18T21:57:50.349Z,66.61
2019-05-18T22:00:37.406Z,67.61
2019-05-18T22:03:24.210Z,68.11
2019-05-18T22:06:11.173Z,68.46
2019-05-18T22:12:04.404Z,67.29
2019-05-18T22:14:52.422Z,66.14
2019-05-18T22:17:58.770Z,65.87
2019-05-18T22:23:52.350Z,66.87
2019-05-18T22:26:41.315Z,67.78
2019-05-18T22:29:28.958Z,68.88
2019-05-18T22:32:15.673Z,69.61
2019-05-18T22:35:02.448Z,68.26
2019-05-18T22:37:49.789Z,68.49
2019-05-18T22:40:37.519Z,67.55
2019-05-18T22:43:24.892Z,67.13
2019-05-18T22:46:12.563Z,65.26
2019-05-18T22:48:59.696Z,66.49
2019-05-18T22:51:47.431Z,67.09
2019-05-18T22:54:35.165Z,68.59
2019-05-18T23:00:28.532Z,70.92
2019-05-18T23:06:21.645Z,70.31
2019-05-18T23:09:24.830Z,71.77
2019-05-18T23:12:12.026Z,72.52
2019-05-18T23:15:00.251Z,71.17
2019-05-18T23:17:48.392Z,70.93
2019-05-18T23:20:36.020Z,72.63
2019-05-18T23:23:22.970Z,72.44
2019-05-18T23:26:11.610Z,73.71
2019-05-18T23:28:57.063Z,74.19
2019-05-18T23:34:50.259Z,75.42
2019-05-18T23:37:38.579Z,75.81
2019-05-18T23:40:26.614Z,75.84
2019-05-18T23:43:13.372Z,75.65
2019-05-18T23:46:00.773Z,75.67
2019-05-18T23:48:48.314Z,75.49
2019-05-18T23:51:35.205Z,76.12
2019-05-18T23:54:23.123Z,75.80
2019-05-18T23:57:10.959Z,75.78
2019-05-18T23:59:58.583Z,74.37
